createdAt,value
2022-08-05T00:00:25.997Z,963.11
2022-08-05T00:06:02.817Z,963.10
2022-08-05T00:10:26.943Z,963.08
2022-08-05T00:15:55.475Z,963.09
2022-08-05T00:20:28.750Z,963.06
2022-08-05T00:25:23.630Z,963.07
2022-08-05T00:30:29.300Z,963.02
2022-08-05T00:35:24.524Z,963.01
2022-08-05T00:40:28.082Z,963.01
2022-08-05T00:45:28.030Z,962.97
2022-08-05T00:50:25.240Z,962.91
2022-08-05T00:55:23.330Z,962.90
2022-08-05T01:00:25.931Z,962.93
2022-08-05T01:05:23.171Z,962.92
2022-08-05T01:10:25.748Z,962.89
2022-08-05T01:15:35.792Z,962.84
2022-08-05T01:20:23.957Z,962.83
2022-08-05T01:25:22.964Z,962.84
2022-08-05T01:30:33.626Z,962.87
2022-08-05T01:35:51.259Z,962.78
2022-08-05T01:40:27.925Z,962.81
2022-08-05T01:45:23.663Z,962.81
2022-08-05T01:50:28.668Z,962.74
2022-08-05T01:55:23.515Z,962.71
2022-08-05T02:00:30.603Z,962.69
2022-08-05T02:05:23.680Z,962.74
2022-08-05T02:10:28.143Z,962.71
2022-08-05T02:15:23.351Z,962.64
2022-08-05T02:20:22.331Z,962.62
2022-08-05T02:25:22.177Z,962.60
2022-08-05T02:30:22.088Z,962.68
2022-08-05T02:35:27.626Z,962.68
2022-08-05T02:40:23.053Z,962.74
2022-08-05T02:45:23.941Z,962.73
2022-08-05T02:50:21.859Z,962.62
2022-08-05T02:55:52.065Z,962.62
2022-08-05T03:00:24.791Z,962.64
2022-08-05T03:06:54.484Z,962.65
2022-08-05T03:10:25.057Z,962.60
2022-08-05T03:15:21.598Z,962.54
2022-08-05T03:20:21.540Z,962.54
2022-08-05T03:25:32.906Z,962.51
2022-08-05T03:30:22.438Z,962.49
2022-08-05T03:35:22.290Z,962.47
2022-08-05T03:40:31.391Z,962.51
2022-08-05T03:45:23.246Z,962.52
2022-08-05T03:50:21.088Z,962.51
2022-08-05T03:56:05.120Z,962.55
2022-08-05T04:00:22.071Z,962.47
2022-08-05T04:05:21.021Z,962.40
2022-08-05T04:10:20.920Z,962.39
2022-08-05T04:15:20.785Z,962.40
2022-08-05T04:20:22.116Z,962.46
2022-08-05T04:25:24.201Z,962.51
2022-08-05T04:30:21.577Z,962.54
2022-08-05T04:35:20.513Z,962.52
2022-08-05T04:40:20.453Z,962.55
2022-08-05T04:45:30.998Z,962.43
2022-08-05T04:50:34.538Z,962.36
2022-08-05T04:56:00.106Z,962.30
2022-08-05T05:00:23.460Z,962.29
2022-08-05T05:05:28.618Z,962.33
2022-08-05T05:10:21.145Z,962.40
2022-08-05T05:15:59.418Z,962.39
2022-08-05T05:20:20.955Z,962.43
2022-08-05T05:25:19.904Z,962.57
2022-08-05T05:30:31.463Z,962.59
2022-08-05T05:35:20.826Z,962.57
2022-08-05T05:40:19.848Z,962.65
2022-08-05T05:45:19.673Z,962.69
2022-08-05T05:50:19.896Z,962.74
2022-08-05T05:55:19.599Z,963.22
2022-08-05T06:00:19.473Z,963.07
2022-08-05T06:05:20.441Z,963.25
2022-08-05T06:10:19.322Z,963.27
2022-08-05T06:15:24.138Z,963.10
2022-08-05T06:20:21.653Z,963.18
2022-08-05T06:25:59.761Z,963.21
2022-08-05T06:30:21.202Z,963.09
2022-08-05T06:36:02.789Z,963.10
2022-08-05T06:40:21.358Z,962.75
2022-08-05T06:45:20.793Z,962.77
2022-08-05T06:50:26.105Z,962.64
2022-08-05T06:55:18.762Z,962.80
2022-08-05T07:00:24.473Z,962.69
2022-08-05T07:05:22.322Z,962.71
2022-08-05T07:10:19.603Z,962.75
2022-08-05T07:15:34.413Z,962.74
2022-08-05T07:20:37.047Z,962.82
2022-08-05T07:25:53.887Z,962.85
2022-08-05T07:30:22.885Z,962.92
2022-08-05T07:36:03.256Z,963.11
2022-08-05T07:40:31.914Z,963.41
2022-08-05T07:45:19.163Z,963.55
2022-08-05T07:50:21.705Z,963.51
2022-08-05T07:55:44.465Z,963.41
2022-08-05T08:00:18.989Z,963.53
2022-08-05T08:05:18.007Z,963.56
2022-08-05T08:10:20.579Z,963.63
2022-08-05T08:15:17.808Z,963.75
2022-08-05T08:20:43.690Z,963.69
2022-08-05T08:25:26.990Z,963.71
2022-08-05T08:30:32.446Z,963.72
2022-08-05T08:35:18.551Z,963.89
2022-08-05T08:40:17.500Z,963.84
2022-08-05T08:45:26.213Z,964.01
2022-08-05T08:50:31.564Z,964.12
2022-08-05T08:55:19.551Z,964.05
2022-08-05T09:00:19.274Z,964.12
2022-08-05T09:05:18.430Z,964.15
2022-08-05T09:10:18.159Z,964.20
2022-08-05T09:15:17.173Z,964.32
2022-08-05T09:20:36.534Z,964.36
2022-08-05T09:25:24.340Z,964.35
2022-08-05T09:30:17.923Z,964.34
2022-08-05T09:35:20.157Z,964.30
2022-08-05T09:40:17.848Z,964.27
2022-08-05T09:46:02.658Z,964.45
2022-08-05T09:50:18.058Z,964.46
2022-08-05T09:55:57.696Z,964.44
2022-08-05T10:00:17.597Z,964.35
2022-08-05T10:05:16.506Z,964.43
2022-08-05T10:10:17.924Z,964.34
2022-08-05T10:15:20.242Z,964.29
2022-08-05T10:20:16.364Z,964.29
2022-08-05T10:25:16.290Z,964.29
2022-08-05T10:31:20.826Z,964.34
2022-08-05T10:35:17.184Z,964.42
2022-08-05T10:40:17.494Z,964.49
2022-08-05T10:45:23.509Z,964.50
2022-08-05T10:50:20.803Z,964.52
2022-08-05T10:55:18.434Z,964.51
2022-08-05T11:00:20.534Z,964.54
2022-08-05T11:05:18.158Z,964.53
2022-08-05T11:10:15.764Z,964.51
2022-08-05T11:15:20.331Z,964.54
2022-08-05T11:20:18.712Z,964.54
2022-08-05T11:26:04.180Z,964.46
2022-08-05T11:30:16.563Z,964.52
2022-08-05T11:35:15.606Z,964.55
2022-08-05T11:40:15.535Z,964.51
2022-08-05T11:45:26.835Z,964.42
2022-08-05T11:50:16.464Z,964.51
2022-08-05T11:55:15.281Z,964.41
2022-08-05T12:00:15.233Z,964.34
2022-08-05T12:05:18.120Z,964.31
2022-08-05T12:10:15.164Z,964.35
2022-08-05T12:15:16.783Z,964.23
2022-08-05T12:20:27.851Z,964.16
2022-08-05T12:25:16.599Z,964.10
2022-08-05T12:30:15.474Z,964.16
2022-08-05T12:35:16.896Z,964.12
2022-08-05T12:40:26.371Z,964.09
2022-08-05T12:45:15.730Z,964.04
2022-08-05T12:50:14.684Z,964.05
2022-08-05T12:55:23.264Z,964.06
2022-08-05T13:02:03.203Z,963.99
2022-08-05T13:05:17.241Z,964.02
2022-08-05T13:10:14.456Z,963.97
2022-08-05T13:15:24.004Z,963.95
2022-08-05T13:20:17.316Z,963.94
2022-08-05T13:25:19.456Z,963.86
2022-08-05T13:30:34.954Z,963.84
2022-08-05T13:35:15.194Z,963.86
2022-08-05T13:40:35.514Z,963.81
2022-08-05T13:45:15.042Z,963.86
2022-08-05T13:50:16.808Z,963.84
2022-08-05T13:55:13.928Z,963.85
2022-08-05T14:00:14.873Z,963.85
2022-08-05T14:05:15.378Z,963.76
2022-08-05T14:10:18.390Z,963.79
2022-08-05T14:16:05.783Z,963.78
2022-08-05T14:20:18.345Z,963.75
2022-08-05T14:25:19.011Z,963.74
2022-08-05T14:30:20.356Z,963.64
2022-08-05T14:35:14.489Z,963.65
2022-08-05T14:40:14.263Z,963.71
2022-08-05T14:45:13.391Z,963.59
2022-08-05T14:50:18.468Z,963.63
2022-08-05T14:55:15.678Z,963.58
2022-08-05T15:00:13.221Z,963.45
2022-08-05T15:05:13.592Z,963.40
2022-08-05T15:10:13.096Z,963.37
2022-08-05T15:15:15.547Z,963.24
2022-08-05T15:20:18.960Z,963.22
2022-08-05T15:25:14.674Z,963.23
2022-08-05T15:30:14.150Z,963.25
2022-08-05T15:35:12.887Z,963.28
2022-08-05T15:40:58.491Z,963.26
2022-08-05T15:45:13.721Z,963.30
2022-08-05T15:50:15.377Z,963.38
2022-08-05T15:55:15.619Z,963.34
2022-08-05T16:00:12.524Z,963.43
2022-08-05T16:05:12.496Z,963.44
2022-08-05T16:10:12.426Z,963.44
2022-08-05T16:15:18.524Z,963.44
2022-08-05T16:20:13.433Z,963.49
2022-08-05T16:25:12.240Z,963.47
2022-08-05T16:30:25.477Z,963.58
2022-08-05T16:35:13.102Z,963.59
2022-08-05T16:40:24.817Z,963.60
2022-08-05T16:46:03.478Z,963.54
2022-08-05T16:50:12.918Z,963.54
2022-08-05T16:55:11.863Z,963.59
2022-08-05T17:00:11.806Z,963.60
2022-08-05T17:05:11.759Z,963.67
2022-08-05T17:10:11.706Z,963.74
2022-08-05T17:15:15.525Z,963.77
2022-08-05T17:20:14.588Z,963.75
2022-08-05T17:25:33.629Z,963.69
2022-08-05T17:30:19.286Z,963.66
2022-08-05T17:35:12.403Z,963.67
2022-08-05T17:40:12.394Z,963.66
2022-08-05T17:45:20.219Z,963.74
2022-08-05T17:50:12.240Z,963.71
2022-08-05T17:55:11.158Z,963.73
2022-08-05T18:00:11.099Z,963.77
2022-08-05T18:05:13.635Z,963.86
2022-08-05T18:10:14.084Z,963.94
2022-08-05T18:15:11.923Z,963.92
2022-08-05T18:20:14.058Z,963.91
2022-08-05T18:25:10.799Z,963.93
2022-08-05T18:30:11.743Z,963.97
2022-08-05T18:35:11.518Z,964.07
2022-08-05T18:41:50.536Z,964.12
2022-08-05T18:45:11.560Z,964.22
2022-08-05T18:50:10.969Z,964.33
2022-08-05T18:55:10.851Z,964.45
2022-08-05T19:00:20.030Z,964.63
2022-08-05T19:06:06.312Z,964.65
2022-08-05T19:10:11.265Z,964.75
2022-08-05T19:15:25.142Z,964.69
2022-08-05T19:20:11.118Z,964.71
2022-08-05T19:25:10.048Z,964.78
2022-08-05T19:30:11.009Z,964.87
2022-08-05T19:35:09.932Z,964.87
2022-08-05T19:40:10.090Z,964.95
2022-08-05T19:45:09.803Z,964.99
2022-08-05T19:50:11.941Z,965.06
2022-08-05T19:56:15.473Z,965.14
2022-08-05T20:00:10.639Z,965.08
2022-08-05T20:05:16.234Z,965.10
2022-08-05T20:10:13.614Z,965.09
2022-08-05T20:15:09.462Z,965.11
2022-08-05T20:20:10.879Z,965.06
2022-08-05T20:25:09.343Z,965.22
2022-08-05T20:30:09.272Z,965.28
2022-08-05T20:35:09.231Z,965.22
2022-08-05T20:40:09.265Z,965.20
2022-08-05T20:45:09.102Z,965.16
2022-08-05T20:50:09.039Z,965.23
2022-08-05T20:55:54.996Z,965.43
2022-08-05T21:00:20.588Z,965.61
2022-08-05T21:05:09.851Z,965.66
2022-08-05T21:10:08.870Z,965.66
2022-08-05T21:15:09.777Z,965.70
2022-08-05T21:20:09.848Z,965.66
2022-08-05T21:25:08.585Z,965.86
2022-08-05T21:30:08.549Z,966.08
2022-08-05T21:35:18.212Z,966.32
2022-08-05T21:40:13.887Z,966.53
2022-08-05T21:45:10.802Z,966.71
2022-08-05T21:50:08.282Z,966.81
2022-08-05T21:55:08.222Z,966.83
2022-08-05T22:00:11.247Z,966.69
2022-08-05T22:05:08.962Z,966.73
2022-08-05T22:10:08.110Z,966.80
2022-08-05T22:15:08.039Z,966.85
2022-08-05T22:20:13.347Z,967.14
2022-08-05T22:25:08.923Z,967.29
2022-08-05T22:30:08.778Z,967.53
2022-08-05T22:35:07.722Z,967.61
2022-08-05T22:40:07.717Z,967.76
2022-08-05T22:45:07.609Z,968.14
2022-08-05T22:50:20.636Z,968.43
2022-08-05T22:55:19.399Z,968.69
2022-08-05T23:00:08.404Z,968.91
2022-08-05T23:05:07.417Z,968.83
2022-08-05T23:10:07.303Z,968.79
2022-08-05T23:15:08.590Z,968.90
2022-08-05T23:20:10.466Z,969.21
2022-08-05T23:25:08.096Z,969.20
2022-08-05T23:30:08.218Z,969.17
2022-08-05T23:35:06.979Z,969.06
2022-08-05T23:40:07.852Z,968.85
2022-08-05T23:45:14.109Z,968.84
2022-08-05T23:50:09.542Z,968.89
2022-08-05T23:55:07.094Z,969.08
